Sandwich, Canada
Current Conditions -  °F | °C
As of 9:00 AM on Monday 22 Dec 2014 (Local Time) from CYQG Reporting Station
Few Clouds Few Clouds  
Wind Chill: 21°   Ceiling: Unl
Heat Index: 27°   Visibility: 8mi
Dew Point: 25°   Wind: 5mph
Humidity: 93%   Direction: 80°E
Pressure: 30.1"   Gusts: NA
Location:  42.28°N, 83.07°W
Report Text: CYQG 221400Z 08004KT 8SM FEW100 FEW250 M03/M04 A3010 RMK AC1CI1 FROIN SLP202
Loading
Personal Weather Stations






























Interactive Weather Map New forecast layout! Learn more

10-Day Weather Forecast

Advertisements
Track Severe Weather on mobile